createdAt,value
2023-01-28T00:00:53.399Z,69.52
2023-01-28T00:03:36.588Z,68.06
2023-01-28T00:06:26.404Z,68.16
2023-01-28T00:09:08.619Z,67.95
2023-01-28T00:11:57.461Z,67.74
2023-01-28T00:14:39.742Z,67.50
2023-01-28T00:17:28.421Z,67.66
2023-01-28T00:20:12.126Z,67.41
2023-01-28T00:23:01.412Z,67.10
2023-01-28T00:25:43.748Z,66.93
2023-01-28T00:28:32.405Z,67.34
2023-01-28T00:31:18.095Z,66.82
2023-01-28T00:34:08.393Z,66.77
2023-01-28T00:36:58.424Z,66.41
2023-01-28T00:39:47.382Z,66.76
2023-01-28T00:42:36.354Z,67.39
2023-01-28T00:45:19.272Z,67.11
2023-01-28T00:48:10.377Z,67.31
2023-01-28T00:51:01.354Z,67.87
2023-01-28T00:53:51.329Z,67.51
2023-01-28T00:56:44.493Z,67.27
2023-01-28T00:59:27.226Z,67.19
2023-01-28T01:02:22.556Z,67.09
2023-01-28T01:05:04.779Z,67.17
2023-01-28T01:07:53.445Z,67.04
2023-01-28T01:10:35.727Z,66.40
2023-01-28T01:13:24.330Z,66.38
2023-01-28T01:16:19.563Z,65.44
2023-01-28T01:19:08.767Z,65.80
2023-01-28T01:21:51.667Z,64.85
2023-01-28T01:24:41.368Z,64.44
2023-01-28T01:27:30.297Z,64.75
2023-01-28T01:30:26.353Z,66.23
2023-01-28T01:33:14.637Z,65.30
2023-01-28T01:36:02.431Z,66.54
2023-01-28T01:38:51.708Z,65.21
2023-01-28T01:41:39.443Z,65.19
2023-01-28T01:44:55.665Z,65.70
2023-01-28T01:48:03.331Z,63.85
2023-01-28T01:50:59.662Z,65.56
2023-01-28T01:53:41.501Z,65.45
2023-01-28T01:56:35.671Z,65.30
2023-01-28T01:59:22.357Z,64.56
2023-01-28T02:02:09.043Z,64.96
2023-01-28T02:04:59.702Z,65.36
2023-01-28T02:07:50.755Z,64.88
2023-01-28T02:10:33.440Z,63.22
2023-01-28T02:13:17.472Z,62.21
2023-01-28T02:16:07.367Z,61.96
2023-01-28T02:18:49.569Z,61.80
2023-01-28T02:22:13.388Z,61.75
2023-01-28T02:25:18.418Z,62.34
2023-01-28T02:28:42.359Z,62.43
2023-01-28T02:31:40.254Z,62.44
2023-01-28T02:34:48.437Z,62.35
2023-01-28T02:37:47.649Z,62.20
2023-01-28T02:41:03.412Z,63.23
2023-01-28T02:43:48.614Z,62.83
2023-01-28T02:46:55.415Z,63.99
2023-01-28T02:49:44.668Z,65.23
2023-01-28T02:53:22.362Z,65.41
2023-01-28T02:56:21.696Z,65.69
2023-01-28T02:59:41.415Z,65.88
2023-01-28T03:02:26.756Z,64.14
2023-01-28T03:05:23.752Z,63.02
2023-01-28T03:08:26.439Z,61.93
2023-01-28T03:11:34.371Z,60.52
2023-01-28T03:14:37.254Z,60.66
2023-01-28T03:18:00.358Z,56.35
2023-01-28T03:21:08.327Z,55.37
2023-01-28T03:24:21.428Z,54.38
2023-01-28T03:27:41.841Z,54.11
2023-01-28T03:31:12.370Z,50.36
2023-01-28T03:34:25.909Z,47.94
2023-01-28T03:37:08.345Z,45.86
2023-01-28T03:40:20.201Z,45.21
2023-01-28T03:43:09.331Z,44.09
2023-01-28T03:46:01.105Z,43.17
2023-01-28T03:48:44.390Z,40.49
2023-01-28T03:51:27.499Z,40.71
2023-01-28T03:54:16.362Z,39.48
2023-01-28T03:57:04.715Z,37.28
2023-01-28T03:59:47.360Z,37.09
2023-01-28T04:02:37.281Z,37.08
2023-01-28T04:05:30.401Z,34.28
2023-01-28T04:08:19.666Z,35.39
2023-01-28T04:11:27.709Z,36.02
2023-01-28T04:14:17.624Z,34.92
2023-01-28T04:17:07.435Z,33.65
2023-01-28T04:19:58.244Z,33.21
2023-01-28T04:22:48.359Z,34.25
2023-01-28T04:25:38.597Z,33.03
2023-01-28T04:28:21.302Z,33.42
2023-01-28T04:31:16.172Z,31.56
2023-01-28T04:34:34.379Z,31.89
2023-01-28T04:37:49.253Z,30.64
2023-01-28T04:41:07.337Z,30.60
2023-01-28T04:43:52.687Z,30.08
2023-01-28T04:47:01.309Z,31.47
2023-01-28T04:50:09.350Z,28.82
2023-01-28T04:53:07.866Z,29.09
2023-01-28T04:56:21.382Z,28.99
2023-01-28T04:59:10.621Z,28.06
2023-01-28T05:01:53.435Z,31.81
2023-01-28T05:04:42.793Z,38.42
2023-01-28T05:07:40.336Z,32.44
2023-01-28T05:10:31.677Z,33.61
2023-01-28T05:13:15.622Z,37.85
2023-01-28T05:16:03.590Z,32.78
2023-01-28T05:18:46.353Z,32.38
2023-01-28T05:21:29.433Z,36.29
2023-01-28T05:24:24.350Z,33.11
2023-01-28T05:27:06.468Z,31.70
2023-01-28T05:29:55.395Z,30.42
2023-01-28T05:32:43.661Z,33.29
2023-01-28T05:35:30.364Z,34.23
2023-01-28T05:38:15.116Z,33.86
2023-01-28T05:41:04.316Z,37.45
2023-01-28T05:43:54.418Z,32.70
2023-01-28T05:46:47.753Z,36.62
2023-01-28T05:49:59.387Z,34.11
2023-01-28T05:52:53.372Z,35.98
2023-01-28T05:55:40.079Z,35.84
2023-01-28T05:58:29.312Z,34.07
2023-01-28T06:01:12.639Z,32.29
2023-01-28T06:04:07.435Z,32.86
2023-01-28T06:06:56.612Z,34.98
2023-01-28T06:09:39.323Z,35.87
2023-01-28T06:12:23.692Z,32.70
2023-01-28T06:15:30.521Z,33.33
2023-01-28T06:18:25.500Z,30.82
2023-01-28T06:21:15.371Z,32.98
2023-01-28T06:24:04.659Z,33.15
2023-01-28T06:26:46.335Z,34.16
2023-01-28T06:29:35.778Z,34.82
2023-01-28T06:32:30.356Z,33.70
2023-01-28T06:35:19.685Z,32.61
2023-01-28T06:38:02.331Z,34.63
2023-01-28T06:40:50.636Z,34.02
2023-01-28T06:43:35.340Z,32.82
2023-01-28T06:46:24.319Z,34.47
2023-01-28T06:49:06.596Z,36.39
2023-01-28T06:51:55.333Z,34.36
2023-01-28T06:54:37.626Z,35.61
2023-01-28T06:57:26.326Z,32.58
2023-01-28T07:00:16.689Z,31.72
2023-01-28T07:03:05.494Z,30.59
2023-01-28T07:05:47.794Z,29.79
2023-01-28T07:08:36.328Z,31.19
2023-01-28T07:11:25.342Z,29.39
2023-01-28T07:14:13.628Z,33.16
2023-01-28T07:16:56.396Z,30.46
2023-01-28T07:19:45.653Z,31.85
2023-01-28T07:22:28.402Z,31.85
2023-01-28T07:25:18.669Z,29.24
2023-01-28T07:28:02.687Z,28.35
2023-01-28T07:30:44.635Z,31.63
2023-01-28T07:33:33.380Z,31.90
2023-01-28T07:36:15.584Z,31.82
2023-01-28T07:39:04.403Z,29.17
2023-01-28T07:41:52.731Z,30.88
2023-01-28T07:44:46.345Z,31.26
2023-01-28T07:47:36.784Z,30.53
2023-01-28T07:50:20.339Z,30.27
2023-01-28T07:53:05.961Z,29.26
2023-01-28T07:55:55.323Z,29.66
2023-01-28T07:58:37.551Z,31.54
2023-01-28T08:01:27.353Z,28.95
2023-01-28T08:04:16.863Z,30.62
2023-01-28T08:07:00.349Z,30.47
2023-01-28T08:09:49.754Z,29.37
2023-01-28T08:12:33.702Z,30.13
2023-01-28T08:15:22.304Z,29.81
2023-01-28T08:18:06.292Z,31.18
2023-01-28T08:20:55.373Z,32.26
2023-01-28T08:23:37.808Z,31.64
2023-01-28T08:26:35.435Z,32.22
2023-01-28T08:29:17.802Z,30.57
2023-01-28T08:32:06.274Z,30.88
2023-01-28T08:34:55.701Z,31.74
2023-01-28T08:37:43.599Z,33.44
2023-01-28T08:40:26.316Z,33.75
2023-01-28T08:43:15.621Z,33.10
2023-01-28T08:45:58.493Z,34.22
2023-01-28T08:48:47.735Z,30.89
2023-01-28T08:51:30.343Z,32.73
2023-01-28T08:54:12.753Z,33.31
2023-01-28T08:57:01.341Z,35.03
2023-01-28T08:59:50.884Z,33.54
2023-01-28T09:02:32.533Z,33.00
2023-01-28T09:05:21.734Z,33.21
2023-01-28T09:08:04.269Z,32.03
2023-01-28T09:10:53.284Z,31.73
2023-01-28T09:13:43.376Z,32.27
2023-01-28T09:16:32.661Z,32.25
2023-01-28T09:19:15.883Z,31.85
2023-01-28T09:22:04.723Z,31.19
2023-01-28T09:24:46.363Z,32.98
2023-01-28T09:27:28.565Z,32.26
2023-01-28T09:30:18.588Z,32.87
2023-01-28T09:33:06.640Z,34.15
2023-01-28T09:35:49.282Z,34.18
2023-01-28T09:38:32.233Z,34.95
2023-01-28T09:41:50.368Z,36.73
2023-01-28T09:44:55.232Z,36.38
2023-01-28T09:47:48.305Z,36.37
2023-01-28T09:50:49.712Z,35.92
2023-01-28T09:53:39.387Z,35.83
2023-01-28T09:56:28.973Z,35.83
2023-01-28T09:59:32.352Z,37.08
2023-01-28T10:02:40.641Z,37.03
2023-01-28T10:05:37.126Z,37.10
2023-01-28T10:08:29.690Z,37.25
2023-01-28T10:11:25.312Z,37.66
2023-01-28T10:14:23.103Z,38.21
2023-01-28T10:17:34.459Z,38.88
2023-01-28T10:20:34.106Z,37.91
2023-01-28T10:23:26.402Z,38.36
2023-01-28T10:26:41.720Z,37.84
2023-01-28T10:29:32.271Z,39.17
2023-01-28T10:32:49.415Z,37.21
2023-01-28T10:35:43.661Z,37.21
2023-01-28T10:38:30.313Z,38.19
2023-01-28T10:41:21.324Z,38.08
2023-01-28T10:44:05.743Z,37.23
2023-01-28T10:46:56.344Z,36.31
2023-01-28T10:49:42.605Z,37.17
2023-01-28T10:52:31.240Z,36.42
2023-01-28T10:55:14.615Z,36.66
2023-01-28T10:58:03.347Z,36.85
2023-01-28T11:00:53.632Z,38.10
2023-01-28T11:03:42.775Z,37.25
2023-01-28T11:06:45.376Z,38.04
2023-01-28T11:09:37.647Z,38.20
2023-01-28T11:12:30.298Z,38.03
2023-01-28T11:15:26.347Z,39.22
2023-01-28T11:18:18.244Z,40.26
2023-01-28T11:21:07.086Z,40.32
2023-01-28T11:24:21.361Z,39.13
2023-01-28T11:27:23.660Z,40.08
2023-01-28T11:30:11.285Z,39.14
2023-01-28T11:33:15.587Z,40.16
2023-01-28T11:36:21.257Z,39.79
2023-01-28T11:39:22.826Z,41.15
2023-01-28T11:42:22.355Z,39.38
2023-01-28T11:45:04.753Z,40.10
2023-01-28T11:48:03.363Z,41.56
2023-01-28T11:51:05.870Z,41.05
2023-01-28T11:54:18.356Z,40.96
2023-01-28T11:57:35.834Z,41.67
2023-01-28T12:00:49.250Z,42.80
2023-01-28T12:03:57.171Z,42.96
2023-01-28T12:06:54.776Z,43.83
2023-01-28T12:09:48.606Z,44.88
2023-01-28T12:13:01.344Z,46.13
2023-01-28T12:16:21.833Z,46.07
2023-01-28T12:19:29.350Z,46.38
2023-01-28T12:22:44.287Z,46.67
2023-01-28T12:25:58.561Z,45.96
2023-01-28T12:28:55.304Z,46.70
2023-01-28T12:32:24.165Z,46.54
2023-01-28T12:36:00.337Z,47.45
2023-01-28T12:39:03.111Z,48.00
2023-01-28T12:42:02.302Z,50.42
2023-01-28T12:45:28.363Z,51.52
2023-01-28T12:48:26.559Z,50.42
2023-01-28T12:51:30.296Z,51.31
2023-01-28T12:54:30.340Z,52.36
2023-01-28T12:57:19.237Z,52.66
2023-01-28T13:00:41.296Z,53.23
2023-01-28T13:03:43.230Z,53.50
2023-01-28T13:06:33.050Z,54.92
2023-01-28T13:09:34.280Z,54.88
2023-01-28T13:12:17.959Z,54.22
2023-01-28T13:15:08.234Z,54.42
2023-01-28T13:18:08.736Z,53.71
2023-01-28T13:20:59.396Z,55.02
2023-01-28T13:23:57.609Z,54.81
2023-01-28T13:26:51.228Z,54.53
2023-01-28T13:29:35.775Z,54.79
2023-01-28T13:32:44.341Z,55.25
2023-01-28T13:36:01.616Z,54.67
2023-01-28T13:38:44.309Z,55.11
2023-01-28T13:41:33.615Z,55.79
2023-01-28T13:44:34.300Z,56.25
2023-01-28T13:47:32.467Z,56.14
2023-01-28T13:50:30.355Z,58.04
2023-01-28T13:53:49.741Z,57.32
2023-01-28T13:56:40.305Z,58.98
2023-01-28T13:59:47.253Z,58.66
2023-01-28T14:02:46.305Z,58.58
2023-01-28T14:05:41.749Z,59.17
2023-01-28T14:08:48.228Z,58.82
2023-01-28T14:12:14.575Z,59.76
2023-01-28T14:15:21.414Z,60.39
2023-01-28T14:18:12.276Z,61.04
2023-01-28T14:20:57.114Z,61.05
2023-01-28T14:23:46.338Z,61.05
2023-01-28T14:26:44.129Z,62.05
2023-01-28T14:29:58.372Z,61.64
2023-01-28T14:32:59.285Z,62.06
2023-01-28T14:35:53.518Z,62.93
2023-01-28T14:38:36.264Z,62.94
2023-01-28T14:41:36.289Z,62.48
2023-01-28T14:44:41.625Z,63.08
2023-01-28T14:47:53.287Z,64.21
2023-01-28T14:50:41.572Z,63.49
2023-01-28T14:53:33.227Z,64.29
2023-01-28T14:56:42.536Z,64.04
2023-01-28T14:59:48.337Z,64.65
2023-01-28T15:02:39.159Z,65.19
2023-01-28T15:05:35.228Z,65.73
2023-01-28T15:08:31.286Z,65.68
2023-01-28T15:11:23.368Z,65.54
2023-01-28T15:14:06.532Z,65.27
2023-01-28T15:16:55.836Z,66.13
2023-01-28T15:19:45.738Z,66.24
2023-01-28T15:22:32.264Z,66.31
2023-01-28T15:25:31.011Z,66.55
2023-01-28T15:28:14.277Z,66.37
2023-01-28T15:31:03.455Z,66.58
2023-01-28T15:33:58.206Z,66.62
2023-01-28T15:36:47.162Z,66.71
2023-01-28T15:39:38.367Z,66.92
2023-01-28T15:42:32.878Z,67.10
2023-01-28T15:45:25.298Z,67.98
2023-01-28T15:48:09.944Z,68.16
2023-01-28T15:51:00.266Z,68.20
2023-01-28T15:53:48.347Z,68.31
2023-01-28T15:56:42.330Z,68.30
2023-01-28T15:59:39.547Z,67.88
2023-01-28T16:02:27.287Z,68.76
2023-01-28T16:05:25.841Z,68.49
2023-01-28T16:08:18.238Z,68.10
2023-01-28T16:11:03.894Z,68.17
2023-01-28T16:14:05.092Z,68.80
2023-01-28T16:16:50.093Z,68.62
2023-01-28T16:19:57.690Z,69.42
2023-01-28T16:22:48.671Z,69.40
2023-01-28T16:25:50.396Z,69.65
2023-01-28T16:28:39.608Z,69.36
2023-01-28T16:31:22.353Z,69.04
2023-01-28T16:34:10.625Z,69.66
2023-01-28T16:37:08.354Z,69.68
2023-01-28T16:40:02.806Z,69.91
2023-01-28T16:42:54.320Z,69.48
2023-01-28T16:45:49.613Z,69.32
2023-01-28T16:48:34.365Z,69.66
2023-01-28T16:51:25.523Z,69.61
2023-01-28T16:54:12.252Z,69.57
2023-01-28T16:57:13.411Z,70.42
2023-01-28T17:00:06.065Z,70.00
2023-01-28T17:02:52.131Z,69.84
2023-01-28T17:05:41.812Z,69.78
2023-01-28T17:08:24.225Z,70.47
2023-01-28T17:11:14.675Z,70.36
2023-01-28T17:13:57.247Z,70.51
2023-01-28T17:16:45.488Z,70.33
2023-01-28T17:19:28.323Z,70.23
2023-01-28T17:22:16.563Z,70.39
2023-01-28T17:24:59.359Z,70.92
2023-01-28T17:27:41.668Z,70.98
2023-01-28T17:30:33.239Z,71.03
2023-01-28T17:33:28.137Z,71.21
2023-01-28T17:36:18.192Z,71.41
2023-01-28T17:39:08.292Z,71.43
2023-01-28T17:41:54.516Z,71.09
2023-01-28T17:44:43.269Z,71.45
2023-01-28T17:47:26.200Z,71.46
2023-01-28T17:50:20.539Z,70.83
2023-01-28T17:53:09.633Z,70.97
2023-01-28T17:55:54.321Z,70.99
2023-01-28T17:58:46.524Z,71.45
2023-01-28T18:01:30.321Z,71.66
2023-01-28T18:04:19.889Z,72.02
2023-01-28T18:07:02.212Z,71.75
2023-01-28T18:09:55.299Z,71.53
2023-01-28T18:12:38.341Z,71.86
2023-01-28T18:15:27.617Z,72.29
2023-01-28T18:18:09.286Z,72.00
2023-01-28T18:21:09.341Z,72.10
2023-01-28T18:23:58.418Z,72.42
2023-01-28T18:26:46.527Z,71.87
2023-01-28T18:29:31.301Z,72.45
2023-01-28T18:32:19.531Z,73.05
2023-01-28T18:35:11.958Z,73.31
2023-01-28T18:38:01.239Z,73.04
2023-01-28T18:40:54.647Z,73.49
2023-01-28T18:43:40.321Z,73.23
2023-01-28T18:46:29.660Z,73.03
2023-01-28T18:49:12.193Z,73.00
2023-01-28T18:52:01.658Z,72.92
2023-01-28T18:54:44.310Z,72.65
2023-01-28T18:57:32.490Z,73.38
2023-01-28T19:00:15.255Z,73.01
2023-01-28T19:02:58.516Z,72.99
2023-01-28T19:05:52.221Z,71.05
2023-01-28T19:08:42.574Z,72.83
2023-01-28T19:11:25.282Z,72.85
2023-01-28T19:14:15.137Z,73.67
2023-01-28T19:16:58.361Z,74.04
2023-01-28T19:19:46.757Z,74.07
2023-01-28T19:22:29.256Z,73.56
2023-01-28T19:25:25.300Z,74.25
2023-01-28T19:28:14.595Z,74.10
2023-01-28T19:30:57.326Z,74.64
2023-01-28T19:33:53.104Z,75.34
2023-01-28T19:36:43.650Z,75.26
2023-01-28T19:39:26.699Z,75.33
2023-01-28T19:42:15.211Z,74.75
2023-01-28T19:44:57.624Z,75.14
2023-01-28T19:47:46.291Z,74.99
2023-01-28T19:50:28.519Z,75.25
2023-01-28T19:53:17.270Z,74.63
2023-01-28T19:55:59.717Z,74.70
2023-01-28T19:58:50.233Z,74.61
2023-01-28T20:01:34.734Z,74.66
2023-01-28T20:04:23.201Z,75.67
2023-01-28T20:07:05.656Z,74.73
2023-01-28T20:09:55.249Z,74.33
2023-01-28T20:12:37.698Z,74.99
2023-01-28T20:15:26.331Z,75.32
2023-01-28T20:18:08.595Z,75.08
2023-01-28T20:21:02.364Z,75.08
2023-01-28T20:23:44.586Z,75.11
2023-01-28T20:26:36.320Z,74.69
2023-01-28T20:29:23.466Z,75.59
2023-01-28T20:32:18.355Z,75.61
2023-01-28T20:35:14.459Z,75.01
2023-01-28T20:38:03.606Z,75.76
2023-01-28T20:40:48.387Z,75.89
2023-01-28T20:43:37.249Z,75.53
2023-01-28T20:46:35.366Z,75.29
2023-01-28T20:49:17.392Z,75.91
2023-01-28T20:52:06.308Z,75.93
2023-01-28T20:54:49.570Z,76.11
2023-01-28T20:57:38.253Z,75.66
2023-01-28T21:00:27.662Z,74.92
2023-01-28T21:03:10.273Z,75.24
2023-01-28T21:05:59.732Z,76.57
2023-01-28T21:08:42.343Z,75.97
2023-01-28T21:11:32.506Z,76.06
2023-01-28T21:14:14.270Z,75.54
2023-01-28T21:17:03.223Z,75.63
2023-01-28T21:19:52.158Z,75.11
2023-01-28T21:22:41.250Z,75.52
2023-01-28T21:25:23.598Z,76.08
2023-01-28T21:28:12.251Z,75.98
2023-01-28T21:30:55.533Z,76.62
2023-01-28T21:33:45.248Z,76.10
2023-01-28T21:36:28.556Z,75.79
2023-01-28T21:39:18.196Z,76.32
2023-01-28T21:42:00.496Z,77.05
2023-01-28T21:44:49.273Z,76.07
2023-01-28T21:47:45.799Z,74.40
2023-01-28T21:50:27.498Z,76.00
2023-01-28T21:53:17.180Z,75.35
2023-01-28T21:56:05.562Z,75.61
2023-01-28T21:59:06.257Z,75.74
2023-01-28T22:01:49.112Z,74.92
2023-01-28T22:04:39.337Z,74.08
2023-01-28T22:07:28.420Z,75.29
2023-01-28T22:10:10.222Z,74.64
2023-01-28T22:12:58.558Z,74.72
2023-01-28T22:15:41.201Z,73.84
2023-01-28T22:18:30.245Z,75.04
2023-01-28T22:21:15.666Z,74.93
2023-01-28T22:24:04.252Z,75.37
2023-01-28T22:26:47.522Z,75.50
2023-01-28T22:29:36.213Z,75.19
2023-01-28T22:32:18.548Z,75.33
2023-01-28T22:35:09.153Z,75.46
2023-01-28T22:37:51.471Z,74.09
2023-01-28T22:40:42.195Z,74.82
2023-01-28T22:43:31.203Z,75.74
2023-01-28T22:46:14.306Z,75.31
2023-01-28T22:49:04.233Z,75.17
2023-01-28T22:51:46.467Z,75.74
2023-01-28T22:54:35.523Z,75.58
2023-01-28T22:57:17.367Z,74.67
2023-01-28T23:00:06.198Z,75.61
2023-01-28T23:02:54.592Z,75.08
2023-01-28T23:05:37.192Z,76.18
2023-01-28T23:08:26.185Z,75.17
2023-01-28T23:11:23.211Z,74.63
2023-01-28T23:14:24.072Z,75.27
2023-01-28T23:17:32.233Z,74.73
2023-01-28T23:20:39.277Z,75.03
2023-01-28T23:23:42.849Z,74.22
2023-01-28T23:26:31.248Z,75.48
2023-01-28T23:29:20.261Z,75.56
2023-01-28T23:32:10.775Z,75.70
2023-01-28T23:34:59.261Z,75.35
2023-01-28T23:37:47.476Z,75.02
2023-01-28T23:40:32.175Z,76.20
2023-01-28T23:43:14.593Z,75.96
2023-01-28T23:46:03.186Z,76.16
2023-01-28T23:48:45.394Z,75.29
2023-01-28T23:51:34.151Z,75.73
2023-01-28T23:54:16.407Z,75.21
2023-01-28T23:57:05.187Z,75.13
2023-01-28T23:59:47.336Z,75.33
